Norfolk Downs, Massachusetts
Current Conditions -  °F | °C
As of 2:54 PM on Sunday 23 Nov 2014 (Local Time) from KBOS Reporting Station
Broken Clouds Broken Clouds  
Wind Chill: 58°   Ceiling: 6000
Heat Index: 58°   Visibility: 10mi
Dew Point: 38°   Wind: 5mph
Humidity: 47%   Direction: 230°SW
Pressure: 30.11"   Gusts: NA
Location:  42.2866°N, 71.0248°W
Report Text: KBOS 231954Z 23004KT 10SM BKN060 BKN200 14/03 A3011 RMK AO2 SLP196 T01440033
Loading
Personal Weather Stations






























Interactive Weather Map New forecast layout! Learn more

10-Day Weather Forecast

Advertisements
Track Severe Weather on mobile